Kezdőlap
METAR-TAF:

METAR-TAF

Repülőterek :

Augusta, Maine, Amerikai Egyesült Államok

földrajzi szélesség: 44-19-14N, földrajzi hosszúság: 069-47-50W, magasság: 107 m

Jelenlegi meteorológiai megfigyelések

A jelentés 24 perccel ezelõtt készült, 19:53 UTC
Nyugati szél 7 kt
Hőmérséklet 5°C
Páratartalom 38%
Légköri nyomás 1016 hPa
Látótávolság: 16.1 km
Derült ég

METAR: KAUG 221953Z AUTO 27007KT 10SM CLR 05/M08 A3000 RMK AO2 SLP163 T00501083

Idő: 15:17 (20:17 UTC)

Előrejelzés

A jelentés 2 órával és 57 perccel ezelõtt készült, 17:20 UTC
Az előrejelzés 22-én 18 óra UTC és 23-én 18 óra UTC között érvényes
Nyugati szél 7 kt
Látótávolság: 10 km
Derült ég

TAF: KAUG 221720Z 2218/2318 26007KT P6SM SKC

Meteorológiai megfigyelések és előrejelzések több, mint 4000 repülőtéren (METAR és TAF jelentéseket).

A térképen piros és sárga pontok jelzik az elérhető meteorológiai állomásokat.

Mozgassa az egeret a pont fölött, hogy megjelenjen az állomás neve.

Azután kattintson az időjárási megfigyelések és előrejelzések megtekintéséhez.

A térkép megváltoztatása: kattintson a fekete keresztel jelölt zöld gombra ráközelítéshez, a vonallal jelölt zöld gombra távolításhoz, vagy a zöld nyilakra a szomszédos térképek eléréséhez.


METAR-TAF: